createdAt,value
2022-11-05T00:05:58.597Z,96888.64
2022-11-05T00:09:26.991Z,96893.28
2022-11-05T00:12:37.298Z,96896.56
2022-11-05T00:19:07.851Z,96897.34
2022-11-05T00:26:04.774Z,96898.67
2022-11-05T00:36:04.415Z,96876.36
2022-11-05T00:47:01.731Z,96878.27
2022-11-05T00:53:24.164Z,96878.59
2022-11-05T01:17:50.842Z,96851.14
2022-11-05T01:20:19.774Z,96859.84
2022-11-05T01:23:13.742Z,96861.41
2022-11-05T01:25:59.679Z,96865.42
2022-11-05T01:28:58.982Z,96858.25
2022-11-05T01:31:40.360Z,96861.27
2022-11-05T01:34:14.792Z,96850.07
2022-11-05T01:36:48.045Z,96850.63
2022-11-05T01:39:24.404Z,96854.98
2022-11-05T01:42:05.823Z,96849.38
2022-11-05T01:45:12.674Z,96846.69
2022-11-05T01:48:07.828Z,96853.94
2022-11-05T01:50:58.554Z,96858.73
2022-11-05T01:53:38.406Z,96848.59
2022-11-05T01:56:19.587Z,96848.59
2022-11-05T01:59:01.816Z,96854.42
2022-11-05T02:01:52.786Z,96848.17
2022-11-05T02:08:18.784Z,96852.34
2022-11-05T02:11:02.563Z,96843.44
2022-11-05T02:13:35.019Z,96839.34
2022-11-05T02:16:35.833Z,96828.30
2022-11-05T02:23:11.815Z,96837.26
2022-11-05T02:26:20.920Z,96843.31
2022-11-05T02:29:32.005Z,96847.25
2022-11-05T02:32:23.901Z,96850.63
2022-11-05T02:35:17.351Z,96852.90
2022-11-05T02:37:52.239Z,96849.88
2022-11-05T02:40:38.137Z,96844.78
2022-11-05T02:43:16.225Z,96852.48
2022-11-05T02:46:33.392Z,96855.08
2022-11-05T02:49:37.827Z,96854.30
2022-11-05T02:52:41.800Z,96849.80
2022-11-05T02:55:36.586Z,96853.27
2022-11-05T02:58:10.934Z,96848.55
2022-11-05T03:00:47.760Z,96855.35
2022-11-05T03:03:36.843Z,96852.75
2022-11-05T03:06:25.552Z,96853.06
2022-11-05T03:09:27.633Z,96862.55
2022-11-05T03:12:19.159Z,96862.63
2022-11-05T03:15:16.996Z,96866.42
2022-11-05T03:17:59.820Z,96861.14
2022-11-05T03:20:42.669Z,96862.25
2022-11-05T03:23:34.483Z,96865.38
2022-11-05T03:26:37.566Z,96859.24
2022-11-05T03:29:45.978Z,96850.98
2022-11-05T03:32:17.776Z,96851.55
2022-11-05T03:34:51.224Z,96846.48
2022-11-05T03:37:22.417Z,96840.35
2022-11-05T03:39:55.336Z,96837.23
2022-11-05T03:42:28.618Z,96837.30
2022-11-05T03:45:00.225Z,96831.47
2022-11-05T03:47:36.057Z,96816.53
2022-11-05T03:54:03.280Z,96827.35
2022-11-05T03:56:59.118Z,96828.06
2022-11-05T03:59:29.559Z,96836.17
2022-11-05T04:01:58.167Z,96838.48
2022-11-05T04:04:26.543Z,96842.83
2022-11-05T04:21:45.976Z,96860.41
2022-11-05T04:24:52.962Z,96867.02
2022-11-05T04:27:29.223Z,96875.37
2022-11-05T04:36:45.602Z,96872.77
2022-11-05T04:39:22.845Z,96862.02
2022-11-05T04:41:55.774Z,96859.81
2022-11-05T04:44:23.993Z,96854.30
2022-11-05T04:46:52.404Z,96863.51
2022-11-05T05:09:01.018Z,96880.19
2022-11-05T05:11:46.847Z,96882.46
2022-11-05T05:14:31.496Z,96876.16
2022-11-05T05:17:14.080Z,96877.58
2022-11-05T05:20:19.105Z,96873.66
2022-11-05T05:23:24.257Z,96886.86
2022-11-05T05:32:25.386Z,96880.64
2022-11-05T05:34:53.480Z,96880.16
2022-11-05T05:37:25.203Z,96888.23
2022-11-05T05:39:59.503Z,96887.86
2022-11-05T05:42:31.782Z,96880.12
2022-11-05T05:45:03.050Z,96893.25
2022-11-05T05:47:36.008Z,96891.84
2022-11-05T05:50:04.537Z,96897.13
2022-11-05T05:52:32.472Z,96899.95
2022-11-05T05:55:00.390Z,96902.22
2022-11-05T05:57:28.451Z,96898.27
2022-11-05T05:59:56.478Z,96903.03
2022-11-05T06:02:24.792Z,96902.38
2022-11-05T06:04:52.764Z,96901.13
2022-11-05T06:07:20.815Z,96904.88
2022-11-05T06:09:51.470Z,96905.91
2022-11-05T06:12:19.985Z,96910.38
2022-11-05T06:14:48.204Z,96913.28
2022-11-05T06:17:16.451Z,96912.42
2022-11-05T06:19:57.003Z,96919.89
2022-11-05T06:22:24.651Z,96935.90
2022-11-05T06:24:55.069Z,96937.83
2022-11-05T06:27:26.571Z,96933.65
2022-11-05T06:30:01.569Z,96940.13
2022-11-05T06:32:31.068Z,96942.91
2022-11-05T06:51:45.575Z,96958.44
2022-11-05T07:10:57.021Z,96941.45
2022-11-05T07:13:39.207Z,96948.62
2022-11-05T07:16:20.500Z,96930.27
2022-11-05T07:19:26.846Z,96945.22
2022-11-05T07:22:05.729Z,96943.02
2022-11-05T07:25:22.847Z,96933.73
2022-11-05T07:28:04.295Z,96931.52
2022-11-05T07:30:34.466Z,96933.89
2022-11-05T07:33:03.377Z,96934.68
2022-11-05T07:35:34.034Z,96927.44
2022-11-05T07:38:02.174Z,96928.23
2022-11-05T07:40:30.548Z,96917.80
2022-11-05T07:43:00.845Z,96918.34
2022-11-05T07:45:31.225Z,96918.59
2022-11-05T07:48:02.097Z,96913.64
2022-11-05T07:50:33.812Z,96914.32
2022-11-05T07:53:10.909Z,96915.21
2022-11-05T07:55:41.751Z,96924.41
2022-11-05T07:58:13.869Z,96923.75
2022-11-05T08:00:42.269Z,96925.62
2022-11-05T08:03:15.818Z,96926.52
2022-11-05T08:05:46.354Z,96919.36
2022-11-05T08:08:17.849Z,96921.35
2022-11-05T08:10:45.611Z,96918.66
2022-11-05T08:13:14.619Z,96921.45
2022-11-05T08:15:43.170Z,96918.40
2022-11-05T08:18:14.857Z,96919.06
2022-11-05T08:20:44.528Z,96914.30
2022-11-05T08:23:12.951Z,96921.01
2022-11-05T08:25:41.524Z,96921.30
2022-11-05T08:28:23.282Z,96925.06
2022-11-05T08:30:54.286Z,96928.27
2022-11-05T08:33:26.132Z,96922.37
2022-11-05T08:35:53.854Z,96926.88
2022-11-05T08:38:21.669Z,96926.25
2022-11-05T08:40:58.038Z,96925.89
2022-11-05T08:43:26.489Z,96930.32
2022-11-05T08:45:55.046Z,96931.28
2022-11-05T08:48:22.635Z,96934.52
2022-11-05T08:50:50.834Z,96947.52
2022-11-05T08:53:18.754Z,96947.60
2022-11-05T08:55:48.685Z,96953.30
2022-11-05T08:58:17.067Z,96953.05
2022-11-05T09:00:48.324Z,96952.56
2022-11-05T09:03:19.915Z,96952.66
2022-11-05T09:05:47.760Z,96947.99
2022-11-05T09:08:17.947Z,96945.80
2022-11-05T09:10:47.085Z,96945.96
2022-11-05T09:13:19.412Z,96949.39
2022-11-05T09:15:44.497Z,96939.81
2022-11-05T09:18:14.026Z,96938.91
2022-11-05T09:20:41.856Z,96938.55
2022-11-05T09:23:11.395Z,96940.88
2022-11-05T09:25:39.553Z,96946.86
2022-11-05T09:28:24.632Z,96950.91
2022-11-05T09:30:52.959Z,96949.79
2022-11-05T09:33:24.379Z,96953.40
2022-11-05T09:35:53.021Z,96956.55
2022-11-05T09:38:20.805Z,96955.61
2022-11-05T09:41:08.439Z,96947.95
2022-11-05T09:43:47.817Z,96951.06
2022-11-05T09:46:27.250Z,96946.88
2022-11-05T09:52:00.746Z,96952.03
2022-11-05T09:54:46.586Z,96950.68
2022-11-05T09:57:42.156Z,96950.11
2022-11-05T10:00:18.735Z,96951.66
2022-11-05T10:27:49.815Z,96954.88
2022-11-05T10:44:55.587Z,96956.06
2022-11-05T10:50:34.636Z,96946.33
2022-11-05T10:55:50.952Z,96941.95
2022-11-05T12:23:46.472Z,96895.78
2022-11-05T12:37:00.967Z,96902.20
2022-11-05T12:54:33.088Z,96902.44
2022-11-05T13:52:08.552Z,96916.34
2022-11-05T14:30:48.190Z,96943.59
2022-11-05T14:33:43.595Z,96947.17
2022-11-05T14:39:24.497Z,96951.83
2022-11-05T14:42:00.457Z,96960.81
2022-11-05T15:50:55.689Z,96969.66
2022-11-05T17:00:52.273Z,97019.67
2022-11-05T17:03:21.702Z,97011.94
2022-11-05T17:05:50.627Z,97013.85
2022-11-05T17:08:18.791Z,97012.83
2022-11-05T17:10:46.715Z,97024.41
2022-11-05T17:13:16.448Z,97018.59
2022-11-05T17:15:47.491Z,97012.75
2022-11-05T17:18:18.981Z,97023.78
2022-11-05T17:20:58.100Z,97028.94
2022-11-05T17:28:06.158Z,97032.77
2022-11-05T17:34:28.506Z,97035.37
2022-11-05T17:37:17.467Z,97028.42
2022-11-05T17:39:45.143Z,97029.33
2022-11-05T17:42:12.958Z,97035.98
2022-11-05T17:44:40.743Z,97033.06
2022-11-05T17:47:09.262Z,97036.09
2022-11-05T17:49:37.164Z,97037.02
2022-11-05T17:52:04.814Z,97031.29
2022-11-05T17:54:35.315Z,97031.20
2022-11-05T17:57:05.426Z,97040.00
2022-11-05T17:59:33.544Z,97039.34
2022-11-05T18:02:02.182Z,97040.02
2022-11-05T18:04:30.145Z,97043.41
2022-11-05T18:06:57.633Z,97040.40
2022-11-05T18:09:25.699Z,97032.64
2022-11-05T18:11:53.340Z,97034.67
2022-11-05T18:14:24.054Z,97035.92
2022-11-05T18:17:04.674Z,97036.27
2022-11-05T18:19:36.973Z,97037.95
2022-11-05T18:22:04.631Z,97040.44
2022-11-05T18:24:35.836Z,97032.91
2022-11-05T18:27:05.375Z,97036.39
2022-11-05T18:29:34.660Z,97044.69
2022-11-05T18:32:02.885Z,97044.16
2022-11-05T19:05:30.986Z,97085.47
2022-11-05T19:08:01.855Z,97084.61
2022-11-05T19:10:29.685Z,97086.38
2022-11-05T19:12:57.801Z,97088.75
2022-11-05T19:15:25.649Z,97096.27
2022-11-05T19:17:53.199Z,97092.44
2022-11-05T19:20:21.021Z,97099.28
2022-11-05T19:22:49.483Z,97099.28
2022-11-05T19:25:17.229Z,97106.13
2022-11-05T19:27:45.606Z,97114.00
2022-11-05T19:30:13.600Z,97117.48
2022-11-05T19:32:41.197Z,97117.16
2022-11-05T19:35:09.231Z,97122.55
2022-11-05T19:37:36.742Z,97123.33
2022-11-05T19:40:05.436Z,97129.28
2022-11-05T19:42:33.089Z,97127.37
2022-11-05T19:48:19.801Z,97132.98
2022-11-05T21:28:04.910Z,97185.00
2022-11-05T21:30:34.254Z,97180.73
2022-11-05T21:33:05.745Z,97182.44
2022-11-05T21:35:33.900Z,97183.22
2022-11-05T21:38:01.922Z,97185.34
2022-11-05T21:40:31.438Z,97176.69
2022-11-05T21:43:11.949Z,97180.06
2022-11-05T21:45:43.834Z,97181.20
2022-11-05T21:48:15.828Z,97174.00
2022-11-05T21:51:29.558Z,97175.45
2022-11-05T21:54:16.264Z,97176.91
2022-11-05T21:57:08.289Z,97174.78
2022-11-05T21:59:56.305Z,97180.73
2022-11-05T22:02:27.646Z,97182.87
2022-11-05T22:04:59.204Z,97189.04
2022-11-05T22:10:42.353Z,97177.05
2022-11-05T22:13:12.331Z,97186.45
2022-11-05T22:15:43.464Z,97183.54
2022-11-05T22:18:11.880Z,97181.41
2022-11-05T22:20:40.395Z,97165.48
2022-11-05T22:23:11.564Z,97186.70
2022-11-05T22:25:42.722Z,97183.22
2022-11-05T22:28:10.929Z,97188.61
2022-11-05T22:30:42.204Z,97184.11
2022-11-05T22:33:10.432Z,97181.65
2022-11-05T22:35:39.452Z,97188.81
2022-11-05T22:38:12.470Z,97187.70
2022-11-05T22:40:47.611Z,97181.08
2022-11-05T22:43:20.972Z,97186.56
2022-11-05T22:45:56.437Z,97186.70
2022-11-05T22:48:24.694Z,97200.39
2022-11-05T22:50:52.851Z,97192.41
2022-11-05T22:53:22.596Z,97196.91
2022-11-05T22:55:50.625Z,97191.62
2022-11-05T22:58:18.388Z,97194.66
2022-11-05T23:00:46.167Z,97194.77
2022-11-05T23:03:14.327Z,97209.92
2022-11-05T23:05:45.526Z,97205.20
2022-11-05T23:21:33.794Z,97204.97
2022-11-05T23:24:26.744Z,97203.41
2022-11-05T23:26:57.860Z,97208.33
2022-11-05T23:29:36.031Z,97210.34
2022-11-05T23:32:28.260Z,97208.31
2022-11-05T23:35:00.271Z,97222.22
2022-11-05T23:37:49.507Z,97226.27
2022-11-05T23:40:21.838Z,97232.56
2022-11-05T23:43:08.791Z,97228.72
2022-11-05T23:46:12.161Z,97229.06
2022-11-05T23:48:52.375Z,97234.52
2022-11-05T23:51:24.351Z,97233.27
2022-11-05T23:53:52.622Z,97240.84
2022-11-05T23:56:20.664Z,97239.25
2022-11-05T23:58:48.773Z,97245.50
